createdAt,value
2022-11-06T00:01:08.965Z,98425.94
2022-11-06T00:03:38.349Z,98429.88
2022-11-06T00:06:26.527Z,98436.31
2022-11-06T00:09:02.725Z,98427.81
2022-11-06T00:11:32.021Z,98433.59
2022-11-06T00:14:03.110Z,98425.06
2022-11-06T00:16:32.479Z,98428.22
2022-11-06T00:19:01.983Z,98429.38
2022-11-06T00:21:32.675Z,98439.38
2022-11-06T00:24:07.369Z,98433.03
2022-11-06T00:26:37.274Z,98427.75
2022-11-06T00:29:07.353Z,98430.34
2022-11-06T00:31:38.585Z,98430.97
2022-11-06T00:34:08.641Z,98433.31
2022-11-06T00:37:05.631Z,98420.69
2022-11-06T00:39:36.121Z,98430.00
2022-11-06T00:42:05.511Z,98433.06
2022-11-06T00:44:34.617Z,98433.16
2022-11-06T00:47:03.745Z,98434.75
2022-11-06T00:49:32.963Z,98437.09
2022-11-06T00:52:02.340Z,98428.13
2022-11-06T00:54:31.974Z,98433.47
2022-11-06T00:57:07.939Z,98442.44
2022-11-06T00:59:41.399Z,98441.38
2022-11-06T01:02:14.922Z,98433.56
2022-11-06T01:04:44.414Z,98439.03
2022-11-06T01:07:14.752Z,98432.88
2022-11-06T01:09:43.991Z,98429.66
2022-11-06T01:12:14.868Z,98433.56
2022-11-06T01:14:45.373Z,98438.41
2022-11-06T01:17:15.294Z,98440.00
2022-11-06T01:19:44.482Z,98433.66
2022-11-06T01:22:13.596Z,98441.53
2022-11-06T01:24:43.111Z,98440.81
2022-11-06T01:27:27.909Z,98435.72
2022-11-06T01:29:58.699Z,98436.19
2022-11-06T01:32:27.855Z,98437.97
2022-11-06T01:34:56.950Z,98437.69
2022-11-06T01:37:26.081Z,98434.66
2022-11-06T01:39:55.279Z,98433.16
2022-11-06T01:42:24.549Z,98436.44
2022-11-06T01:45:32.807Z,98434.72
2022-11-06T01:48:05.404Z,98436.63
2022-11-06T01:50:34.889Z,98441.44
2022-11-06T01:53:04.390Z,98440.47
2022-11-06T01:55:40.830Z,98439.31
2022-11-06T01:58:16.443Z,98432.41
2022-11-06T02:00:47.904Z,98433.56
2022-11-06T02:03:20.460Z,98425.06
2022-11-06T02:05:49.914Z,98427.38
2022-11-06T02:08:22.874Z,98437.44
2022-11-06T02:10:52.743Z,98427.78
2022-11-06T02:13:44.346Z,98433.47
2022-11-06T02:16:28.782Z,98427.31
2022-11-06T02:19:15.280Z,98431.50
2022-11-06T02:22:24.598Z,98433.66
2022-11-06T02:25:17.051Z,98437.34
2022-11-06T02:27:52.976Z,98440.81
2022-11-06T02:30:22.408Z,98439.47
2022-11-06T02:32:58.944Z,98442.88
2022-11-06T02:35:34.027Z,98452.56
2022-11-06T02:38:09.110Z,98447.78
2022-11-06T02:40:45.123Z,98452.63
2022-11-06T02:43:18.149Z,98455.41
2022-11-06T02:45:54.734Z,98445.13
2022-11-06T02:48:31.791Z,98463.53
2022-11-06T02:51:05.569Z,98453.34
2022-11-06T02:53:34.733Z,98459.63
2022-11-06T02:56:09.481Z,98466.13
2022-11-06T02:58:49.066Z,98461.94
2022-11-06T03:01:28.708Z,98472.06
2022-11-06T03:04:03.979Z,98473.41
2022-11-06T03:06:39.127Z,98471.06
2022-11-06T03:09:13.558Z,98469.22
2022-11-06T03:11:44.583Z,98471.13
2022-11-06T03:14:22.448Z,98476.06
2022-11-06T03:16:58.888Z,98485.03
2022-11-06T03:19:32.263Z,98478.75
2022-11-06T03:22:08.957Z,98478.75
2022-11-06T03:24:48.177Z,98477.84
2022-11-06T03:27:26.928Z,98472.84
2022-11-06T03:30:04.116Z,98483.75
2022-11-06T03:32:38.075Z,98488.69
2022-11-06T03:35:14.310Z,98496.84
2022-11-06T03:37:49.165Z,98493.34
2022-11-06T03:40:23.280Z,98491.66
2022-11-06T03:42:56.551Z,98495.03
2022-11-06T03:45:29.004Z,98491.09
2022-11-06T03:48:03.683Z,98491.81
2022-11-06T03:50:38.932Z,98496.38
2022-11-06T03:53:14.318Z,98497.56
2022-11-06T03:55:48.143Z,98494.78
2022-11-06T03:58:22.957Z,98502.75
2022-11-06T04:00:56.058Z,98507.84
2022-11-06T04:03:32.340Z,98506.41
2022-11-06T04:06:08.543Z,98515.19
2022-11-06T04:08:56.190Z,98505.53
2022-11-06T04:11:48.264Z,98511.09
2022-11-06T04:14:19.775Z,98518.66
2022-11-06T04:16:54.846Z,98516.19
2022-11-06T04:19:25.170Z,98518.88
2022-11-06T04:22:14.834Z,98512.88
2022-11-06T04:25:15.868Z,98513.56
2022-11-06T04:28:20.675Z,98509.19
2022-11-06T04:31:03.252Z,98514.19
2022-11-06T04:33:45.421Z,98520.38
2022-11-06T04:36:25.578Z,98519.84
2022-11-06T04:39:06.035Z,98516.59
2022-11-06T04:41:40.839Z,98525.28
2022-11-06T04:44:16.238Z,98514.03
2022-11-06T04:46:50.046Z,98524.00
2022-11-06T04:49:22.482Z,98524.00
2022-11-06T04:51:52.499Z,98524.72
2022-11-06T04:54:22.175Z,98524.72
2022-11-06T04:56:52.133Z,98528.16
2022-11-06T04:59:21.283Z,98530.28
2022-11-06T05:01:50.421Z,98528.50
2022-11-06T05:04:21.502Z,98530.16
2022-11-06T05:06:50.584Z,98529.28
2022-11-06T05:09:19.739Z,98532.13
2022-11-06T05:11:48.894Z,98532.41
2022-11-06T05:14:18.125Z,98524.94
2022-11-06T05:16:47.232Z,98529.19
2022-11-06T05:19:16.378Z,98536.41
2022-11-06T05:22:04.125Z,98536.16
2022-11-06T05:24:33.023Z,98537.97
2022-11-06T05:27:02.107Z,98539.16
2022-11-06T05:29:31.212Z,98536.63
2022-11-06T05:32:00.430Z,98534.31
2022-11-06T05:34:29.530Z,98537.66
2022-11-06T05:37:00.186Z,98536.34
2022-11-06T05:39:29.395Z,98534.53
2022-11-06T05:41:58.561Z,98539.81
2022-11-06T05:44:27.875Z,98544.22
2022-11-06T05:46:57.025Z,98540.06
2022-11-06T05:49:26.187Z,98545.25
2022-11-06T05:51:55.303Z,98546.13
2022-11-06T05:54:26.018Z,98549.44
2022-11-06T05:56:55.141Z,98548.84
2022-11-06T05:59:26.517Z,98553.28
2022-11-06T06:01:55.840Z,98557.41
2022-11-06T06:04:25.033Z,98556.91
2022-11-06T06:06:54.231Z,98562.72
2022-11-06T06:09:23.427Z,98559.13
2022-11-06T06:11:54.483Z,98563.38
2022-11-06T06:14:23.901Z,98564.06
2022-11-06T06:16:53.114Z,98564.47
2022-11-06T06:19:22.459Z,98561.31
2022-11-06T06:21:51.660Z,98567.78
2022-11-06T06:24:20.849Z,98569.00
2022-11-06T06:26:49.996Z,98565.09
2022-11-06T06:29:20.490Z,98568.59
2022-11-06T06:31:50.309Z,98568.59
2022-11-06T06:34:19.686Z,98575.66
2022-11-06T06:36:51.876Z,98581.06
2022-11-06T06:39:22.101Z,98584.56
2022-11-06T06:41:51.274Z,98584.53
2022-11-06T06:44:22.587Z,98589.66
2022-11-06T06:46:52.130Z,98580.88
2022-11-06T06:49:21.407Z,98588.34
2022-11-06T06:51:52.416Z,98585.41
2022-11-06T06:54:21.659Z,98594.81
2022-11-06T06:56:50.794Z,98590.00
2022-11-06T06:59:21.486Z,98589.44
2022-11-06T07:01:50.829Z,98597.88
2022-11-06T07:04:20.302Z,98590.34
2022-11-06T07:06:49.352Z,98597.34
2022-11-06T07:09:18.443Z,98600.69
2022-11-06T07:11:47.642Z,98608.38
2022-11-06T07:14:17.177Z,98612.84
2022-11-06T07:16:53.448Z,98606.50
2022-11-06T07:19:22.945Z,98616.38
2022-11-06T07:21:53.386Z,98614.66
2022-11-06T07:24:22.531Z,98615.31
2022-11-06T07:26:51.646Z,98607.13
2022-11-06T07:29:20.906Z,98600.13
2022-11-06T07:31:51.371Z,98608.22
2022-11-06T07:34:20.570Z,98604.72
2022-11-06T07:36:49.746Z,98603.59
2022-11-06T07:39:19.237Z,98602.25
2022-11-06T07:41:48.343Z,98604.06
2022-11-06T07:44:17.520Z,98597.69
2022-11-06T07:46:46.937Z,98607.69
2022-11-06T07:49:17.575Z,98607.00
2022-11-06T07:51:47.091Z,98612.56
2022-11-06T07:54:16.462Z,98611.41
2022-11-06T07:56:45.589Z,98617.56
2022-11-06T07:59:14.819Z,98609.06
2022-11-06T08:01:45.726Z,98614.63
2022-11-06T08:04:15.143Z,98608.94
2022-11-06T08:06:45.759Z,98607.34
2022-11-06T08:09:14.993Z,98600.59
2022-11-06T08:11:44.256Z,98606.38
2022-11-06T08:14:13.636Z,98610.41
2022-11-06T08:16:42.752Z,98616.13
2022-11-06T08:19:12.120Z,98611.06
2022-11-06T08:21:41.270Z,98602.13
2022-11-06T08:24:15.340Z,98609.50
2022-11-06T08:26:47.211Z,98604.09
2022-11-06T08:29:16.609Z,98608.22
2022-11-06T08:31:45.739Z,98606.31
2022-11-06T08:34:14.978Z,98605.81
2022-11-06T08:36:49.701Z,98603.00
2022-11-06T08:39:20.628Z,98603.31
2022-11-06T08:41:49.876Z,98610.88
2022-11-06T08:44:19.201Z,98609.59
2022-11-06T08:46:52.167Z,98609.63
2022-11-06T08:49:21.478Z,98605.94
2022-11-06T08:51:50.882Z,98602.53
2022-11-06T08:54:21.579Z,98607.56
2022-11-06T08:56:50.874Z,98605.22
2022-11-06T08:59:20.110Z,98599.75
2022-11-06T09:01:49.364Z,98598.72
2022-11-06T09:04:19.829Z,98596.88
2022-11-06T09:06:49.236Z,98589.72
2022-11-06T09:09:18.467Z,98598.13
2022-11-06T09:11:48.954Z,98589.78
2022-11-06T09:14:19.391Z,98597.84
2022-11-06T09:16:48.611Z,98599.41
2022-11-06T09:19:18.003Z,98596.25
2022-11-06T09:21:53.485Z,98591.56
2022-11-06T09:24:43.121Z,98597.22
2022-11-06T09:27:14.543Z,98594.03
2022-11-06T09:29:44.620Z,98586.88
2022-11-06T09:32:13.777Z,98584.50
2022-11-06T09:34:42.875Z,98584.56
2022-11-06T09:37:12.214Z,98581.31
2022-11-06T09:39:41.284Z,98588.13
2022-11-06T09:42:23.163Z,98591.31
2022-11-06T09:45:04.742Z,98586.84
2022-11-06T09:47:38.879Z,98596.44
2022-11-06T09:50:16.531Z,98588.34
2022-11-06T09:52:51.406Z,98593.94
2022-11-06T09:55:23.703Z,98593.03
2022-11-06T09:57:58.911Z,98587.81
2022-11-06T10:00:28.218Z,98588.13
2022-11-06T10:03:05.082Z,98584.09
2022-11-06T10:05:36.287Z,98581.59
2022-11-06T10:08:15.306Z,98579.81
2022-11-06T10:10:55.874Z,98576.53
2022-11-06T10:13:45.004Z,98573.94
2022-11-06T10:16:26.291Z,98574.59
2022-11-06T10:19:08.768Z,98579.34
2022-11-06T10:21:49.657Z,98573.25
2022-11-06T10:24:26.891Z,98569.44
2022-11-06T10:26:58.313Z,98569.13
2022-11-06T10:29:51.124Z,98572.31
2022-11-06T10:33:05.299Z,98563.28
2022-11-06T10:35:43.534Z,98558.03
2022-11-06T10:38:16.218Z,98556.81
2022-11-06T10:40:49.090Z,98550.84
2022-11-06T10:43:31.718Z,98545.38
2022-11-06T10:46:16.146Z,98533.53
2022-11-06T10:48:50.989Z,98518.97
2022-11-06T10:51:44.854Z,98519.59
2022-11-06T10:54:29.711Z,98518.97
2022-11-06T10:57:20.097Z,98519.28
2022-11-06T10:59:50.043Z,98519.69
2022-11-06T11:02:33.131Z,98510.75
2022-11-06T11:05:04.200Z,98508.34
2022-11-06T11:07:35.799Z,98502.84
2022-11-06T11:10:29.155Z,98506.63
2022-11-06T11:13:07.109Z,98502.69
2022-11-06T11:15:46.271Z,98503.97
2022-11-06T11:18:24.236Z,98502.72
2022-11-06T11:21:07.892Z,98508.72
2022-11-06T11:23:37.046Z,98505.00
2022-11-06T11:26:24.775Z,98507.25
2022-11-06T11:28:57.580Z,98508.25
2022-11-06T11:31:34.632Z,98498.50
2022-11-06T11:34:08.683Z,98501.06
2022-11-06T11:36:55.803Z,98496.44
2022-11-06T11:39:32.347Z,98495.44
2022-11-06T11:42:30.397Z,98487.72
2022-11-06T11:45:16.405Z,98484.69
2022-11-06T11:47:48.107Z,98485.81
2022-11-06T11:50:30.153Z,98481.25
2022-11-06T11:53:10.272Z,98478.84
2022-11-06T11:55:44.639Z,98472.53
2022-11-06T11:58:22.887Z,98470.91
2022-11-06T12:00:58.593Z,98484.47
2022-11-06T12:03:35.237Z,98477.13
2022-11-06T12:06:12.554Z,98473.41
2022-11-06T12:08:46.724Z,98470.28
2022-11-06T12:11:21.829Z,98469.13
2022-11-06T12:14:33.263Z,98460.75
2022-11-06T12:17:19.105Z,98457.25
2022-11-06T12:19:53.400Z,98460.53
2022-11-06T12:22:29.636Z,98460.38
2022-11-06T12:25:04.327Z,98468.81
2022-11-06T12:27:38.247Z,98464.03
2022-11-06T12:30:13.230Z,98472.63
2022-11-06T12:33:04.533Z,98471.31
2022-11-06T12:35:41.651Z,98474.78
2022-11-06T12:38:26.963Z,98465.03
2022-11-06T12:41:01.248Z,98469.75
2022-11-06T12:43:38.619Z,98461.03
2022-11-06T12:46:20.323Z,98459.00
2022-11-06T12:49:23.156Z,98452.47
2022-11-06T12:52:10.285Z,98446.47
2022-11-06T12:55:04.351Z,98437.06
2022-11-06T12:57:47.363Z,98434.44
2022-11-06T13:00:20.935Z,98434.25
2022-11-06T13:03:20.973Z,98430.53
2022-11-06T13:06:00.042Z,98419.84
2022-11-06T13:08:40.562Z,98418.75
2022-11-06T13:11:23.864Z,98415.88
2022-11-06T13:14:19.018Z,98409.88
2022-11-06T13:17:01.043Z,98403.88
2022-11-06T13:19:38.655Z,98409.72
2022-11-06T13:22:28.212Z,98409.13
2022-11-06T13:25:06.642Z,98402.19
2022-11-06T13:27:43.894Z,98404.88
2022-11-06T13:30:18.555Z,98407.75
2022-11-06T13:33:07.646Z,98405.47
2022-11-06T13:35:41.107Z,98413.78
2022-11-06T13:38:17.584Z,98400.94
2022-11-06T13:40:53.779Z,98401.34
2022-11-06T13:43:30.877Z,98417.25
2022-11-06T13:46:10.020Z,98416.19
2022-11-06T13:48:52.101Z,98423.41
2022-11-06T13:51:32.762Z,98416.53
2022-11-06T13:54:12.252Z,98416.59
2022-11-06T13:57:14.709Z,98420.00
2022-11-06T14:00:02.801Z,98415.22
2022-11-06T14:03:25.890Z,98413.09
2022-11-06T14:06:03.507Z,98403.38
2022-11-06T14:08:40.543Z,98412.72
2022-11-06T14:11:16.654Z,98411.66
2022-11-06T14:14:01.688Z,98403.44
2022-11-06T14:16:34.708Z,98403.59
2022-11-06T14:19:11.665Z,98399.72
2022-11-06T14:21:51.316Z,98404.50
2022-11-06T14:24:42.043Z,98396.13
2022-11-06T14:27:14.909Z,98409.56
2022-11-06T14:30:07.893Z,98404.88
2022-11-06T14:32:42.579Z,98399.59
2022-11-06T14:35:53.007Z,98405.75
2022-11-06T14:38:43.816Z,98404.53
2022-11-06T14:41:59.243Z,98392.38
2022-11-06T14:44:49.047Z,98388.72
2022-11-06T14:47:42.169Z,98376.00
2022-11-06T14:50:28.803Z,98367.88
2022-11-06T14:53:02.575Z,98368.75
2022-11-06T14:55:39.644Z,98357.75
2022-11-06T14:58:20.887Z,98362.06
2022-11-06T15:00:54.944Z,98365.56
2022-11-06T15:03:32.011Z,98362.88
2022-11-06T15:06:08.426Z,98365.50
2022-11-06T15:09:03.146Z,98366.13
2022-11-06T15:11:58.863Z,98361.50
2022-11-06T15:14:58.103Z,98365.06
2022-11-06T15:17:30.624Z,98353.56
2022-11-06T15:20:22.134Z,98352.56
2022-11-06T15:23:02.584Z,98351.91
2022-11-06T15:25:32.988Z,98356.13
2022-11-06T15:28:09.226Z,98352.56
2022-11-06T15:30:50.120Z,98362.34
2022-11-06T15:33:31.830Z,98358.88
2022-11-06T15:36:10.462Z,98355.31
2022-11-06T15:38:41.612Z,98347.84
2022-11-06T15:41:17.668Z,98359.16
2022-11-06T15:43:48.905Z,98358.47
2022-11-06T15:46:23.900Z,98352.59
2022-11-06T15:49:19.674Z,98364.31
2022-11-06T15:51:56.968Z,98353.94
2022-11-06T15:54:39.139Z,98354.38
2022-11-06T15:57:19.833Z,98345.28
2022-11-06T15:59:49.518Z,98350.53
2022-11-06T16:02:22.606Z,98346.53
2022-11-06T16:04:52.951Z,98335.75
2022-11-06T16:07:23.766Z,98338.59
2022-11-06T16:09:53.251Z,98337.53
2022-11-06T16:12:23.390Z,98335.22
2022-11-06T16:14:52.932Z,98336.16
2022-11-06T16:17:26.798Z,98331.47
2022-11-06T16:19:59.968Z,98334.72
2022-11-06T16:22:34.632Z,98343.25
2022-11-06T16:25:06.531Z,98342.06
2022-11-06T16:27:39.196Z,98347.78
2022-11-06T16:30:25.306Z,98344.69
2022-11-06T16:32:55.113Z,98344.75
2022-11-06T16:35:35.950Z,98352.00
2022-11-06T16:38:42.532Z,98346.41
2022-11-06T16:41:34.706Z,98359.22
2022-11-06T16:44:31.490Z,98351.25
2022-11-06T16:47:18.041Z,98357.72
2022-11-06T16:49:53.638Z,98363.00
2022-11-06T16:52:28.682Z,98365.03
2022-11-06T16:55:06.928Z,98353.81
2022-11-06T16:57:44.394Z,98360.66
2022-11-06T17:00:26.743Z,98365.47
2022-11-06T17:03:00.023Z,98359.03
2022-11-06T17:05:33.791Z,98359.53
2022-11-06T17:08:22.822Z,98362.78
2022-11-06T17:10:54.136Z,98368.44
2022-11-06T17:13:27.474Z,98370.84
2022-11-06T17:16:00.136Z,98370.84
2022-11-06T17:18:31.789Z,98372.06
2022-11-06T17:21:03.298Z,98370.06
2022-11-06T17:23:34.762Z,98378.88
2022-11-06T17:26:14.564Z,98388.53
2022-11-06T17:28:43.834Z,98394.16
2022-11-06T17:31:14.645Z,98390.22
2022-11-06T17:33:44.396Z,98393.03
2022-11-06T17:36:19.285Z,98399.06
2022-11-06T17:38:49.621Z,98395.19
2022-11-06T17:41:30.783Z,98396.03
2022-11-06T17:44:02.187Z,98395.31
2022-11-06T17:46:34.223Z,98403.41
2022-11-06T17:49:04.464Z,98397.00
2022-11-06T17:51:58.334Z,98396.28
2022-11-06T17:54:32.311Z,98399.09
2022-11-06T17:57:06.980Z,98394.72
2022-11-06T17:59:36.983Z,98398.72
2022-11-06T18:02:07.842Z,98394.75
2022-11-06T18:04:39.760Z,98395.53
2022-11-06T18:07:10.311Z,98398.34
2022-11-06T18:09:39.535Z,98400.75
2022-11-06T18:12:17.059Z,98405.16
2022-11-06T18:14:46.109Z,98403.53
2022-11-06T18:17:15.323Z,98404.75
2022-11-06T18:19:44.900Z,98407.09
2022-11-06T18:22:14.075Z,98409.09
2022-11-06T18:24:43.588Z,98405.09
2022-11-06T18:27:14.171Z,98411.06
2022-11-06T18:29:43.248Z,98403.44
2022-11-06T18:32:12.357Z,98406.59
2022-11-06T18:34:41.612Z,98399.38
2022-11-06T18:37:10.771Z,98406.53
2022-11-06T18:39:40.866Z,98398.13
2022-11-06T18:42:14.062Z,98402.47
2022-11-06T18:44:43.351Z,98402.38
2022-11-06T18:47:12.691Z,98397.53
2022-11-06T18:49:41.981Z,98399.81
2022-11-06T18:52:11.078Z,98406.25
2022-11-06T18:54:40.898Z,98401.47
2022-11-06T18:57:10.150Z,98397.44
2022-11-06T18:59:41.925Z,98397.78
2022-11-06T19:02:11.260Z,98402.91
2022-11-06T19:04:40.546Z,98399.63
2022-11-06T19:07:10.055Z,98396.84
2022-11-06T19:09:41.155Z,98403.06
2022-11-06T19:12:10.488Z,98402.28
2022-11-06T19:14:41.288Z,98404.97
2022-11-06T19:17:10.407Z,98398.88
2022-11-06T19:19:39.513Z,98404.88
2022-11-06T19:22:10.621Z,98403.28
2022-11-06T19:24:40.171Z,98398.47
2022-11-06T19:27:09.455Z,98400.44
2022-11-06T19:29:38.739Z,98400.25
2022-11-06T19:32:09.374Z,98397.34
2022-11-06T19:34:39.465Z,98393.34
2022-11-06T19:37:08.796Z,98396.44
2022-11-06T19:39:38.395Z,98401.34
2022-11-06T19:42:07.662Z,98392.25
2022-11-06T19:44:37.071Z,98391.94
2022-11-06T19:47:06.400Z,98386.31
2022-11-06T19:49:37.050Z,98386.25
2022-11-06T19:52:42.553Z,98377.75
2022-11-06T19:55:25.984Z,98387.06
2022-11-06T19:57:45.854Z,98400.25
2022-11-06T20:00:16.407Z,98387.41
2022-11-06T20:02:51.141Z,98400.69
2022-11-06T20:05:21.861Z,98396.81
2022-11-06T20:07:51.595Z,98401.22
2022-11-06T20:10:21.107Z,98398.00
2022-11-06T20:12:50.276Z,98385.22
2022-11-06T20:15:23.761Z,98389.78
2022-11-06T20:17:53.484Z,98393.00
2022-11-06T20:20:24.354Z,98386.66
2022-11-06T20:22:54.523Z,98393.09
2022-11-06T20:25:24.217Z,98404.91
2022-11-06T20:27:53.834Z,98402.53
2022-11-06T20:30:23.280Z,98408.16
2022-11-06T20:32:53.163Z,98411.31
2022-11-06T20:35:23.763Z,98416.97
2022-11-06T20:37:52.976Z,98417.66
2022-11-06T20:40:22.293Z,98423.91
2022-11-06T20:42:51.413Z,98415.84
2022-11-06T20:45:23.560Z,98423.25
2022-11-06T20:47:56.349Z,98410.06
2022-11-06T20:50:27.173Z,98422.38
2022-11-06T20:52:56.487Z,98415.75
2022-11-06T20:55:25.709Z,98419.75
2022-11-06T20:57:54.980Z,98420.53
2022-11-06T21:00:24.178Z,98417.78
2022-11-06T21:02:58.965Z,98415.88
2022-11-06T21:05:32.027Z,98419.97
2022-11-06T21:08:01.132Z,98416.69
2022-11-06T21:10:30.368Z,98413.41
2022-11-06T21:12:59.782Z,98405.31
2022-11-06T21:15:29.363Z,98414.75
2022-11-06T21:17:58.700Z,98405.16
2022-11-06T21:20:27.818Z,98407.44
2022-11-06T21:22:58.503Z,98404.28
2022-11-06T21:25:27.696Z,98401.16
2022-11-06T21:27:56.769Z,98395.44
2022-11-06T21:30:26.408Z,98399.94
2022-11-06T21:32:55.831Z,98400.22
2022-11-06T21:35:25.087Z,98398.66
2022-11-06T21:37:54.226Z,98401.97
2022-11-06T21:40:25.364Z,98402.44
2022-11-06T21:42:54.688Z,98402.25
2022-11-06T21:45:26.192Z,98411.78
2022-11-06T21:47:57.838Z,98400.28
2022-11-06T21:50:29.935Z,98402.34
2022-11-06T21:53:16.983Z,98406.50
2022-11-06T21:56:02.870Z,98397.25
2022-11-06T21:58:32.447Z,98403.16
2022-11-06T22:01:04.742Z,98405.59
2022-11-06T22:03:34.795Z,98406.41
2022-11-06T22:06:08.932Z,98400.84
2022-11-06T22:08:39.041Z,98394.44
2022-11-06T22:11:15.112Z,98398.03
2022-11-06T22:13:45.742Z,98392.06
2022-11-06T22:16:18.090Z,98394.44
2022-11-06T22:18:47.478Z,98388.88
2022-11-06T22:21:19.259Z,98391.66
2022-11-06T22:23:48.746Z,98397.59
2022-11-06T22:26:22.161Z,98399.03
2022-11-06T22:28:55.291Z,98402.88
2022-11-06T22:31:24.894Z,98407.94
2022-11-06T22:33:54.638Z,98405.00
2022-11-06T22:36:24.574Z,98399.22
2022-11-06T22:38:54.300Z,98395.91
2022-11-06T22:41:26.087Z,98399.03
2022-11-06T22:44:00.114Z,98399.66
2022-11-06T22:46:30.135Z,98401.88
2022-11-06T22:48:59.436Z,98401.81
2022-11-06T22:51:30.484Z,98400.03
2022-11-06T22:54:04.130Z,98396.00
2022-11-06T22:56:34.944Z,98394.47
2022-11-06T22:59:08.607Z,98398.41
2022-11-06T23:01:42.318Z,98395.94
2022-11-06T23:04:15.849Z,98400.66
2022-11-06T23:06:46.418Z,98403.75
2022-11-06T23:09:16.289Z,98406.84
2022-11-06T23:11:48.047Z,98406.09
2022-11-06T23:14:17.350Z,98401.72
2022-11-06T23:17:00.887Z,98400.72
2022-11-06T23:19:33.051Z,98407.91
2022-11-06T23:22:19.406Z,98408.88
2022-11-06T23:24:48.532Z,98398.38
2022-11-06T23:27:20.693Z,98402.28
2022-11-06T23:29:49.866Z,98395.97
2022-11-06T23:32:18.930Z,98396.22
2022-11-06T23:34:48.041Z,98403.88
2022-11-06T23:37:17.162Z,98405.84
2022-11-06T23:39:46.349Z,98408.13
2022-11-06T23:42:15.856Z,98406.03
2022-11-06T23:45:05.158Z,98406.50
2022-11-06T23:47:34.996Z,98406.50
2022-11-06T23:50:06.705Z,98399.25
2022-11-06T23:52:36.022Z,98400.91
2022-11-06T23:55:06.299Z,98401.81
2022-11-06T23:57:35.634Z,98397.63
